createdAt,value
2019-03-12T00:02:15.473Z,4.62
2019-03-12T00:04:42.408Z,4.65
2019-03-12T00:07:09.362Z,4.53
2019-03-12T00:09:36.324Z,4.51
2019-03-12T00:12:03.385Z,4.55
2019-03-12T00:14:30.285Z,4.54
2019-03-12T00:16:57.233Z,4.44
2019-03-12T00:19:24.262Z,4.42
2019-03-12T00:21:51.225Z,4.39
2019-03-12T00:24:18.153Z,4.44
2019-03-12T00:26:45.151Z,4.39
2019-03-12T00:29:12.061Z,4.20
2019-03-12T00:31:39.007Z,4.32
2019-03-12T00:34:06.018Z,4.23
2019-03-12T00:36:32.964Z,4.22
2019-03-12T00:38:59.899Z,4.33
2019-03-12T00:41:26.897Z,4.19
2019-03-12T00:43:53.827Z,4.18
2019-03-12T00:46:20.866Z,4.14
2019-03-12T00:48:47.825Z,4.10
2019-03-12T00:51:14.775Z,4.14
2019-03-12T00:53:41.737Z,3.99
2019-03-12T00:56:08.730Z,3.94
2019-03-12T00:58:35.647Z,3.99
2019-03-12T01:01:02.733Z,3.99
2019-03-12T01:03:29.640Z,4.09
2019-03-12T01:05:56.921Z,3.92
2019-03-12T01:08:23.876Z,4.00
2019-03-12T01:10:50.798Z,4.07
2019-03-12T01:13:17.822Z,3.85
2019-03-12T01:15:44.851Z,3.91
2019-03-12T01:18:13.806Z,3.90
2019-03-12T01:20:40.627Z,3.86
2019-03-12T01:23:07.650Z,3.78
2019-03-12T01:25:34.578Z,3.93
2019-03-12T01:28:01.547Z,3.88
2019-03-12T01:30:28.523Z,3.83
2019-03-12T01:32:55.514Z,3.73
2019-03-12T01:35:22.438Z,3.66
2019-03-12T01:37:49.385Z,3.56
2019-03-12T01:40:16.393Z,3.68
2019-03-12T01:42:43.383Z,3.68
2019-03-12T01:45:11.738Z,3.67
2019-03-12T01:47:38.720Z,3.70
2019-03-12T01:50:06.253Z,3.76
2019-03-12T01:52:33.218Z,3.70
2019-03-12T01:55:00.490Z,3.72
2019-03-12T01:57:27.448Z,3.61
2019-03-12T01:59:54.359Z,3.54
2019-03-12T02:02:21.299Z,3.46
2019-03-12T02:04:48.200Z,3.52
2019-03-12T02:07:15.145Z,3.65
2019-03-12T02:09:42.070Z,3.48
2019-03-12T02:12:09.012Z,3.43
2019-03-12T02:14:36.780Z,3.49
2019-03-12T02:17:03.755Z,3.33
2019-03-12T02:19:30.667Z,3.33
2019-03-12T02:21:57.591Z,3.33
2019-03-12T02:24:24.531Z,3.23
2019-03-12T02:26:51.439Z,3.33
2019-03-12T02:29:18.393Z,3.30
2019-03-12T02:31:45.316Z,3.22
2019-03-12T02:34:12.269Z,3.27
2019-03-12T02:36:39.169Z,3.18
2019-03-12T02:39:07.354Z,3.15
2019-03-12T02:41:34.294Z,3.25
2019-03-12T02:44:01.246Z,3.14
2019-03-12T02:46:28.197Z,3.20
2019-03-12T02:48:55.144Z,3.21
2019-03-12T02:51:22.062Z,3.12
2019-03-12T02:53:48.999Z,3.14
2019-03-12T02:56:15.957Z,3.04
2019-03-12T02:58:42.893Z,2.93
2019-03-12T03:01:09.804Z,2.97
2019-03-12T03:03:36.745Z,2.92
2019-03-12T03:06:11.079Z,2.98
2019-03-12T03:08:38.012Z,2.90
2019-03-12T03:11:04.911Z,2.87
2019-03-12T03:13:31.862Z,2.73
2019-03-12T03:15:58.800Z,2.73
2019-03-12T03:18:25.757Z,2.87
2019-03-12T03:20:52.684Z,2.82
2019-03-12T03:23:19.623Z,2.81
2019-03-12T03:25:46.526Z,2.79
2019-03-12T03:28:13.476Z,2.76
2019-03-12T03:30:40.393Z,2.69
2019-03-12T03:33:07.339Z,2.63
2019-03-12T03:35:34.257Z,2.67
2019-03-12T03:38:01.205Z,2.68
2019-03-12T03:40:28.142Z,2.69
2019-03-12T03:42:55.073Z,2.61
2019-03-12T03:45:21.996Z,2.63
2019-03-12T03:47:48.909Z,2.62
2019-03-12T03:50:16.059Z,2.49
2019-03-12T03:52:42.970Z,2.45
2019-03-12T03:55:11.977Z,2.48
2019-03-12T03:57:38.901Z,2.42
2019-03-12T04:00:08.335Z,2.39
2019-03-12T04:02:35.257Z,2.34
2019-03-12T04:05:02.356Z,2.27
2019-03-12T04:07:29.304Z,2.32
2019-03-12T04:09:56.230Z,2.29
2019-03-12T04:12:23.194Z,2.46
2019-03-12T04:14:50.169Z,2.27
2019-03-12T04:17:17.095Z,2.28
2019-03-12T04:19:44.045Z,2.35
2019-03-12T04:22:10.999Z,2.42
2019-03-12T04:24:37.972Z,2.36
2019-03-12T04:27:04.916Z,2.57
2019-03-12T04:29:31.882Z,2.55
2019-03-12T04:31:58.793Z,2.43
2019-03-12T04:34:37.465Z,2.52
2019-03-12T04:37:04.377Z,2.62
2019-03-12T04:39:31.379Z,2.59
2019-03-12T04:41:58.351Z,2.53
2019-03-12T04:44:25.308Z,2.54
2019-03-12T04:46:52.254Z,2.59
2019-03-12T04:49:19.219Z,2.70
2019-03-12T04:51:46.118Z,2.64
2019-03-12T04:54:13.072Z,2.78
2019-03-12T04:56:40.093Z,2.69
2019-03-12T04:59:07.076Z,2.80
2019-03-12T05:01:33.990Z,2.71
2019-03-12T05:04:00.959Z,2.61
2019-03-12T05:06:27.883Z,2.75
2019-03-12T05:08:54.853Z,2.76
2019-03-12T05:11:21.751Z,2.74
2019-03-12T05:14:18.108Z,2.84
2019-03-12T05:16:45.034Z,2.79
2019-03-12T05:19:12.010Z,2.81
2019-03-12T05:21:38.930Z,2.78
2019-03-12T05:24:05.875Z,2.81
2019-03-12T05:26:32.792Z,2.84
2019-03-12T05:28:59.737Z,2.81
2019-03-12T05:31:26.680Z,2.76
2019-03-12T05:33:53.593Z,2.91
2019-03-12T05:36:20.535Z,2.92
2019-03-12T05:38:47.450Z,2.96
2019-03-12T05:41:14.472Z,2.98
2019-03-12T05:43:41.412Z,2.88
2019-03-12T05:46:08.387Z,2.72
2019-03-12T05:48:35.304Z,2.84
2019-03-12T05:51:02.315Z,2.90
2019-03-12T05:53:48.070Z,3.03
2019-03-12T05:56:15.151Z,2.90
2019-03-12T05:58:42.065Z,2.77
2019-03-12T06:01:09.227Z,2.89
2019-03-12T06:03:36.188Z,2.91
2019-03-12T06:06:03.109Z,2.89
2019-03-12T06:08:30.085Z,2.95
2019-03-12T06:10:57.141Z,2.93
2019-03-12T06:13:24.115Z,3.01
2019-03-12T06:16:01.909Z,3.01
2019-03-12T06:18:45.860Z,2.95
2019-03-12T06:21:13.316Z,2.96
2019-03-12T06:23:40.234Z,2.91
2019-03-12T06:26:07.195Z,3.00
2019-03-12T06:28:34.141Z,2.95
2019-03-12T06:31:16.171Z,3.02
2019-03-12T06:34:05.254Z,3.06
2019-03-12T06:36:36.525Z,3.15
2019-03-12T06:39:19.370Z,3.29
2019-03-12T06:41:53.954Z,3.28
2019-03-12T06:44:32.278Z,3.21
2019-03-12T06:47:10.055Z,3.28
2019-03-12T06:49:54.130Z,3.25
2019-03-12T06:52:40.726Z,3.30
2019-03-12T06:55:23.230Z,3.42
2019-03-12T06:58:34.214Z,3.30
2019-03-12T07:01:20.821Z,3.50
2019-03-12T07:04:10.189Z,3.49
2019-03-12T07:06:56.782Z,3.52
2019-03-12T07:09:45.012Z,3.54
2019-03-12T07:12:22.665Z,3.89
2019-03-12T07:15:05.097Z,3.92
2019-03-12T07:18:00.796Z,4.25
2019-03-12T07:20:50.296Z,4.33
2019-03-12T07:23:35.615Z,4.30
2019-03-12T07:26:21.095Z,4.34
2019-03-12T07:29:06.121Z,4.23
2019-03-12T07:31:39.365Z,4.46
2019-03-12T07:34:36.758Z,4.61
2019-03-12T07:37:20.748Z,4.68
2019-03-12T07:40:00.308Z,4.69
2019-03-12T07:42:41.803Z,4.70
2019-03-12T07:45:14.360Z,4.85
2019-03-12T07:48:00.967Z,4.94
2019-03-12T07:50:37.502Z,5.12
2019-03-12T07:53:22.809Z,5.08
2019-03-12T07:56:04.552Z,5.10
2019-03-12T07:59:09.426Z,5.08
2019-03-12T08:01:56.021Z,5.19
2019-03-12T08:04:43.418Z,5.16
2019-03-12T08:07:41.430Z,5.15
2019-03-12T08:10:26.620Z,5.21
2019-03-12T14:15:49.123Z,10.10
2019-03-12T14:18:16.052Z,9.99
2019-03-12T14:20:44.807Z,10.08
2019-03-12T14:23:14.291Z,10.06
2019-03-12T14:25:41.364Z,10.11
2019-03-12T14:28:08.308Z,9.98
2019-03-12T14:30:35.278Z,9.92
2019-03-12T14:33:02.499Z,9.99
2019-03-12T14:35:29.480Z,9.92
2019-03-12T14:37:56.488Z,9.94
2019-03-12T14:40:23.548Z,9.97
2019-03-12T14:42:50.542Z,9.91
2019-03-12T14:45:24.152Z,9.97
2019-03-12T14:47:51.121Z,9.88
2019-03-12T14:50:18.186Z,9.76
2019-03-12T14:52:47.491Z,9.75
2019-03-12T14:55:14.434Z,9.79
2019-03-12T14:57:41.415Z,9.81
2019-03-12T15:00:18.113Z,9.80
2019-03-12T15:02:45.113Z,9.86
2019-03-12T15:05:12.053Z,9.80
2019-03-12T15:07:39.027Z,9.76
2019-03-12T15:10:07.167Z,9.71
2019-03-12T15:12:34.129Z,9.81
2019-03-12T15:15:01.094Z,9.62
2019-03-12T15:17:28.085Z,9.64
2019-03-12T15:19:55.051Z,9.66
2019-03-12T15:22:22.032Z,9.55
2019-03-12T15:24:48.954Z,9.58
2019-03-12T15:27:15.920Z,9.61
2019-03-12T15:29:42.866Z,9.56
2019-03-12T15:32:09.854Z,9.49
2019-03-12T15:34:36.814Z,9.40
2019-03-12T15:37:03.777Z,9.42
2019-03-12T15:39:30.724Z,9.43
2019-03-12T15:41:57.731Z,9.40
2019-03-12T15:44:24.682Z,9.36
2019-03-12T15:46:51.682Z,9.39
2019-03-12T15:49:18.671Z,9.32
2019-03-12T15:51:45.671Z,9.33
2019-03-12T15:54:12.600Z,9.36
2019-03-12T15:56:39.579Z,9.30
2019-03-12T15:59:06.567Z,9.27
2019-03-12T16:01:33.561Z,9.29
2019-03-12T16:04:00.533Z,9.27
2019-03-12T16:06:27.527Z,9.09
2019-03-12T16:08:54.477Z,9.16
2019-03-12T16:11:21.472Z,9.21
2019-03-12T16:13:48.525Z,9.19
2019-03-12T16:16:15.507Z,9.08
2019-03-12T16:18:42.825Z,9.08
2019-03-12T16:21:09.888Z,9.13
2019-03-12T16:23:36.929Z,9.10
2019-03-12T16:26:03.893Z,9.12
2019-03-12T16:28:30.883Z,9.06
2019-03-12T16:30:57.827Z,8.93
2019-03-12T16:33:24.787Z,8.98
2019-03-12T16:35:51.790Z,8.95
2019-03-12T16:38:18.858Z,8.93
2019-03-12T16:40:45.858Z,8.87
2019-03-12T16:43:12.992Z,8.87
2019-03-12T16:45:39.949Z,8.92
2019-03-12T16:48:06.912Z,8.93
2019-03-12T16:50:33.849Z,8.84
2019-03-12T16:53:00.808Z,8.95
2019-03-12T16:55:27.831Z,8.90
2019-03-12T16:57:55.063Z,8.85
2019-03-12T17:00:22.314Z,8.79
2019-03-12T17:02:49.404Z,8.83
2019-03-12T17:05:16.535Z,8.82
2019-03-12T17:07:43.622Z,8.81
2019-03-12T17:10:10.917Z,8.76
2019-03-12T17:12:38.053Z,8.82
2019-03-12T17:15:06.304Z,8.84
2019-03-12T17:17:33.311Z,8.71
2019-03-12T17:20:01.194Z,8.74
2019-03-12T17:22:28.178Z,8.67
2019-03-12T17:24:55.121Z,8.70
2019-03-12T17:27:22.139Z,8.80
2019-03-12T17:29:49.104Z,8.69
2019-03-12T17:32:16.393Z,8.77
2019-03-12T17:34:43.347Z,8.69
2019-03-12T17:37:10.302Z,8.75
2019-03-12T17:39:37.283Z,8.69
2019-03-12T17:42:04.228Z,8.78
2019-03-12T17:44:31.192Z,8.79
2019-03-12T17:46:58.123Z,8.80
2019-03-12T17:49:25.102Z,8.70
2019-03-12T17:51:52.038Z,8.73
2019-03-12T17:54:19.364Z,8.70
2019-03-12T17:56:46.363Z,8.72
2019-03-12T17:59:13.351Z,8.76
2019-03-12T18:01:40.279Z,8.78
2019-03-12T18:04:07.241Z,8.81
2019-03-12T18:06:35.218Z,8.86
2019-03-12T18:09:04.232Z,8.76
2019-03-12T18:11:31.187Z,8.89
2019-03-12T18:13:58.155Z,8.92
2019-03-12T18:16:25.127Z,8.95
2019-03-12T18:18:52.105Z,8.93
2019-03-12T18:21:19.175Z,8.88
2019-03-12T18:23:46.151Z,8.92
2019-03-12T18:26:13.106Z,8.92
2019-03-12T18:28:40.118Z,8.92
2019-03-12T18:31:07.123Z,8.95
2019-03-12T18:33:34.169Z,8.89
2019-03-12T18:36:01.208Z,8.90
2019-03-12T18:38:28.210Z,8.90
2019-03-12T18:40:55.290Z,8.91
2019-03-12T18:43:23.076Z,9.00
2019-03-12T18:45:50.179Z,8.97
2019-03-12T18:48:17.187Z,9.03
2019-03-12T18:50:44.203Z,8.94
2019-03-12T18:53:11.155Z,8.88
2019-03-12T18:55:43.367Z,8.90
2019-03-12T18:58:10.456Z,8.93
2019-03-12T19:00:37.441Z,8.94
2019-03-12T19:03:04.432Z,8.91
2019-03-12T19:05:31.417Z,8.90
2019-03-12T19:07:58.662Z,8.94
2019-03-12T19:10:26.091Z,8.91
2019-03-12T19:12:53.263Z,8.97
2019-03-12T19:15:20.724Z,8.90
2019-03-12T19:17:48.178Z,8.92
2019-03-12T19:20:15.179Z,9.02
2019-03-12T19:22:42.159Z,9.02
2019-03-12T19:25:09.296Z,9.04
2019-03-12T19:27:36.449Z,9.07
2019-03-12T19:30:04.618Z,9.01
2019-03-12T19:32:43.815Z,8.96
2019-03-12T19:35:12.164Z,8.99
2019-03-12T19:37:39.135Z,8.99
2019-03-12T19:40:09.499Z,9.03
2019-03-12T19:42:36.462Z,8.95
2019-03-12T19:45:03.845Z,8.97
2019-03-12T19:47:30.813Z,8.97
2019-03-12T19:49:57.827Z,8.93
2019-03-12T19:52:24.911Z,9.00
2019-03-12T19:54:51.867Z,8.99
2019-03-12T19:57:18.813Z,8.98
2019-03-12T19:59:45.893Z,9.04
2019-03-12T20:02:16.346Z,9.04
2019-03-12T20:04:47.372Z,8.99
2019-03-12T20:07:12.519Z,9.02
2019-03-12T20:10:27.158Z,9.03
2019-03-12T20:13:31.288Z,8.98
2019-03-12T20:16:46.189Z,9.00
2019-03-12T20:19:54.902Z,9.02
2019-03-12T20:22:44.141Z,8.96
2019-03-12T20:25:53.442Z,8.98
2019-03-12T20:29:04.111Z,8.95
2019-03-12T20:32:16.469Z,9.05
2019-03-12T20:35:36.726Z,9.20
2019-03-12T20:38:44.799Z,9.24
2019-03-12T20:41:58.405Z,9.35
2019-03-12T20:45:02.416Z,9.43
2019-03-12T20:48:18.928Z,9.36
2019-03-12T20:51:22.539Z,9.40
2019-03-12T20:54:40.679Z,9.40
2019-03-12T20:57:57.676Z,9.37
2019-03-12T21:01:12.520Z,9.33
2019-03-12T21:04:23.169Z,9.34
2019-03-12T21:07:25.095Z,9.25
2019-03-12T21:10:38.894Z,9.20
2019-03-12T21:13:39.064Z,9.14
2019-03-12T21:16:40.254Z,9.19
2019-03-12T21:19:44.921Z,9.14
2019-03-12T21:23:12.025Z,9.01
2019-03-12T21:26:24.073Z,8.86
2019-03-12T21:29:32.047Z,8.74
2019-03-12T21:31:59.261Z,8.64
2019-03-12T21:34:26.231Z,8.57
2019-03-12T21:36:53.246Z,8.52
2019-03-12T21:39:20.258Z,8.53
2019-03-12T21:41:47.395Z,8.47
2019-03-12T21:44:14.556Z,8.50
2019-03-12T21:46:41.682Z,8.57
2019-03-12T21:49:08.679Z,8.51
2019-03-12T21:51:35.756Z,8.36
2019-03-12T21:54:03.007Z,8.47
2019-03-12T21:56:30.101Z,8.41
2019-03-12T21:58:57.014Z,8.50
2019-03-12T22:01:24.264Z,8.53
2019-03-12T22:03:51.252Z,8.45
2019-03-12T22:06:18.316Z,8.38
2019-03-12T22:08:45.346Z,8.29
2019-03-12T22:11:12.396Z,8.34
2019-03-12T22:13:39.356Z,8.35
2019-03-12T22:16:06.394Z,8.24
2019-03-12T22:18:33.402Z,8.11
2019-03-12T22:21:00.437Z,7.96
2019-03-12T22:23:32.157Z,7.63
2019-03-12T22:25:59.168Z,7.09
2019-03-12T22:28:26.128Z,6.70
2019-03-12T22:30:53.127Z,6.56
2019-03-12T22:33:20.150Z,6.30
2019-03-12T22:35:47.148Z,6.12
2019-03-12T22:38:14.150Z,6.02
2019-03-12T22:40:41.117Z,5.85
2019-03-12T22:43:08.105Z,5.81
2019-03-12T22:45:35.272Z,5.66
2019-03-12T22:48:02.242Z,5.59
2019-03-12T22:50:29.247Z,5.62
2019-03-12T22:52:56.337Z,5.55
2019-03-12T22:55:23.336Z,5.60
2019-03-12T22:57:50.310Z,5.51
2019-03-12T23:00:17.272Z,5.37
2019-03-12T23:02:44.264Z,5.47
2019-03-12T23:05:11.456Z,5.41
2019-03-12T23:07:38.434Z,5.28
2019-03-12T23:10:05.618Z,5.32
2019-03-12T23:12:32.602Z,5.42
2019-03-12T23:14:59.528Z,5.34
2019-03-12T23:17:26.495Z,5.28
2019-03-12T23:19:53.564Z,5.35
2019-03-12T23:22:20.548Z,5.33
2019-03-12T23:24:47.518Z,5.30
2019-03-12T23:27:14.545Z,5.31
2019-03-12T23:29:41.728Z,5.35
2019-03-12T23:32:08.686Z,5.33
2019-03-12T23:34:35.808Z,5.36
2019-03-12T23:37:02.877Z,5.35
2019-03-12T23:39:29.853Z,5.33
2019-03-12T23:41:56.835Z,5.28
2019-03-12T23:44:23.783Z,5.33
2019-03-12T23:46:50.757Z,5.34
2019-03-12T23:49:18.113Z,5.24
2019-03-12T23:51:45.147Z,5.19
2019-03-12T23:54:12.213Z,5.29
2019-03-12T23:56:39.293Z,5.15
2019-03-12T23:59:06.292Z,5.21
